sensor_id;sensor_type;location;lat;lon;timestamp;pressure;altitude;pressure_sealevel;temperature;humidity
16120;BME280;12670;53.502;10.252;2023-09-08T00:00:17;101801.22;;;20.42;97.66
16120;BME280;12670;53.502;10.252;2023-09-08T00:03:19;101797.41;;;20.46;97.64
16120;BME280;12670;53.502;10.252;2023-09-08T00:06:24;101801.69;;;20.49;99.10
16120;BME280;12670;53.502;10.252;2023-09-08T00:09:27;101789.31;;;20.32;99.55
16120;BME280;12670;53.502;10.252;2023-09-08T00:12:30;101801.22;;;20.42;98.58
16120;BME280;12670;53.502;10.252;2023-09-08T00:15:33;101796.34;;;20.35;99.17
16120;BME280;12670;53.502;10.252;2023-09-08T00:18:36;101790.63;;;20.39;98.73
16120;BME280;12670;53.502;10.252;2023-09-08T00:21:40;101799.28;;;20.44;97.65
16120;BME280;12670;53.502;10.252;2023-09-08T00:24:44;101795.44;;;20.34;98.19
16120;BME280;12670;53.502;10.252;2023-09-08T00:27:47;101791.72;;;20.37;97.56
16120;BME280;12670;53.502;10.252;2023-09-08T00:30:50;101792.97;;;20.31;97.63
16120;BME280;12670;53.502;10.252;2023-09-08T00:33:52;101790.78;;;20.23;98.87
16120;BME280;12670;53.502;10.252;2023-09-08T00:36:57;101784.63;;;20.21;98.06
16120;BME280;12670;53.502;10.252;2023-09-08T00:39:59;101784.53;;;20.23;97.77
16120;BME280;12670;53.502;10.252;2023-09-08T00:43:02;101787.66;;;20.17;97.68
16120;BME280;12670;53.502;10.252;2023-09-08T00:46:06;101785.81;;;20.17;97.60
16120;BME280;12670;53.502;10.252;2023-09-08T00:49:09;101786.50;;;20.07;98.16
16120;BME280;12670;53.502;10.252;2023-09-08T00:52:14;101781.00;;;20.08;99.51
16120;BME280;12670;53.502;10.252;2023-09-08T00:55:17;101777.75;;;20.03;98.17
16120;BME280;12670;53.502;10.252;2023-09-08T00:58:20;101779.69;;;20.01;98.54
16120;BME280;12670;53.502;10.252;2023-09-08T01:01:23;101774.03;;;19.91;100.00
16120;BME280;12670;53.502;10.252;2023-09-08T01:04:25;101771.72;;;20.00;99.44
16120;BME280;12670;53.502;10.252;2023-09-08T01:07:31;101768.63;;;19.91;100.00
16120;BME280;12670;53.502;10.252;2023-09-08T01:10:34;101770.88;;;19.85;100.00
16120;BME280;12670;53.502;10.252;2023-09-08T01:13:38;101766.06;;;19.90;100.00
16120;BME280;12670;53.502;10.252;2023-09-08T01:16:41;101764.72;;;19.68;100.00
16120;BME280;12670;53.502;10.252;2023-09-08T01:19:45;101763.75;;;19.69;100.00
16120;BME280;12670;53.502;10.252;2023-09-08T01:23:02;101761.16;;;19.68;100.00
16120;BME280;12670;53.502;10.252;2023-09-08T01:26:10;101756.00;;;19.65;100.00
16120;BME280;12670;53.502;10.252;2023-09-08T01:29:13;101753.47;;;19.76;100.00
16120;BME280;12670;53.502;10.252;2023-09-08T01:32:17;101756.34;;;19.73;100.00
16120;BME280;12670;53.502;10.252;2023-09-08T01:35:20;101739.63;;;19.68;100.00
16120;BME280;12670;53.502;10.252;2023-09-08T01:38:24;101743.09;;;19.70;100.00
16120;BME280;12670;53.502;10.252;2023-09-08T01:41:28;101744.25;;;19.66;100.00
16120;BME280;12670;53.502;10.252;2023-09-08T01:44:31;101737.41;;;19.75;100.00
16120;BME280;12670;53.502;10.252;2023-09-08T01:47:34;101744.44;;;19.77;100.00
16120;BME280;12670;53.502;10.252;2023-09-08T01:50:37;101739.84;;;19.65;100.00
16120;BME280;12670;53.502;10.252;2023-09-08T01:53:40;101733.00;;;19.74;100.00
16120;BME280;12670;53.502;10.252;2023-09-08T01:56:44;101725.91;;;19.58;100.00
16120;BME280;12670;53.502;10.252;2023-09-08T01:59:46;101722.72;;;19.37;100.00
16120;BME280;12670;53.502;10.252;2023-09-08T02:02:49;101727.34;;;19.35;100.00
16120;BME280;12670;53.502;10.252;2023-09-08T02:05:52;101721.75;;;19.38;100.00
16120;BME280;12670;53.502;10.252;2023-09-08T02:08:55;101723.97;;;19.17;100.00
16120;BME280;12670;53.502;10.252;2023-09-08T02:11:59;101721.94;;;19.21;100.00
16120;BME280;12670;53.502;10.252;2023-09-08T02:15:02;101720.00;;;19.09;100.00
16120;BME280;12670;53.502;10.252;2023-09-08T02:18:06;101726.53;;;18.90;100.00
16120;BME280;12670;53.502;10.252;2023-09-08T02:21:09;101720.88;;;19.09;100.00
16120;BME280;12670;53.502;10.252;2023-09-08T02:24:12;101721.16;;;19.05;100.00
16120;BME280;12670;53.502;10.252;2023-09-08T02:27:17;101729.53;;;19.00;100.00
16120;BME280;12670;53.502;10.252;2023-09-08T02:30:19;101726.16;;;18.97;100.00
16120;BME280;12670;53.502;10.252;2023-09-08T02:33:22;101731.22;;;18.87;100.00
16120;BME280;12670;53.502;10.252;2023-09-08T02:36:25;101733.41;;;18.80;100.00
16120;BME280;12670;53.502;10.252;2023-09-08T02:39:28;101728.03;;;18.80;100.00
16120;BME280;12670;53.502;10.252;2023-09-08T02:42:32;101727.66;;;18.72;100.00
16120;BME280;12670;53.502;10.252;2023-09-08T02:45:35;101724.09;;;18.72;100.00
16120;BME280;12670;53.502;10.252;2023-09-08T02:48:38;101728.25;;;18.61;100.00
16120;BME280;12670;53.502;10.252;2023-09-08T02:51:41;101729.38;;;18.57;100.00
16120;BME280;12670;53.502;10.252;2023-09-08T02:54:43;101715.81;;;18.45;100.00
16120;BME280;12670;53.502;10.252;2023-09-08T02:57:48;101725.44;;;18.49;100.00
16120;BME280;12670;53.502;10.252;2023-09-08T03:00:50;101727.28;;;18.32;100.00
16120;BME280;12670;53.502;10.252;2023-09-08T03:03:53;101722.28;;;18.26;100.00
16120;BME280;12670;53.502;10.252;2023-09-08T03:06:56;101725.31;;;18.20;100.00
16120;BME280;12670;53.502;10.252;2023-09-08T03:09:59;101722.22;;;18.12;100.00
16120;BME280;12670;53.502;10.252;2023-09-08T03:13:03;101719.91;;;18.06;100.00
16120;BME280;12670;53.502;10.252;2023-09-08T03:16:07;101723.81;;;18.00;100.00
16120;BME280;12670;53.502;10.252;2023-09-08T03:19:10;101724.81;;;17.98;100.00
16120;BME280;12670;53.502;10.252;2023-09-08T03:22:13;101717.78;;;18.11;100.00
16120;BME280;12670;53.502;10.252;2023-09-08T03:25:15;101718.94;;;17.75;100.00
16120;BME280;12670;53.502;10.252;2023-09-08T03:28:19;101729.78;;;17.90;100.00
16120;BME280;12670;53.502;10.252;2023-09-08T03:31:22;101719.28;;;17.85;100.00
16120;BME280;12670;53.502;10.252;2023-09-08T03:34:25;101716.88;;;17.80;100.00
16120;BME280;12670;53.502;10.252;2023-09-08T03:37:28;101716.34;;;17.74;100.00
16120;BME280;12670;53.502;10.252;2023-09-08T03:40:30;101715.78;;;17.67;100.00
16120;BME280;12670;53.502;10.252;2023-09-08T03:43:34;101714.91;;;17.51;100.00
16120;BME280;12670;53.502;10.252;2023-09-08T03:46:37;101716.22;;;17.44;100.00
16120;BME280;12670;53.502;10.252;2023-09-08T03:49:40;101702.53;;;17.48;100.00
16120;BME280;12670;53.502;10.252;2023-09-08T03:52:43;101709.03;;;17.60;100.00
16120;BME280;12670;53.502;10.252;2023-09-08T03:55:46;101708.84;;;17.63;100.00
16120;BME280;12670;53.502;10.252;2023-09-08T03:58:50;101707.75;;;17.67;100.00
16120;BME280;12670;53.502;10.252;2023-09-08T04:01:52;101699.84;;;17.64;100.00
16120;BME280;12670;53.502;10.252;2023-09-08T04:04:55;101693.16;;;17.73;100.00
16120;BME280;12670;53.502;10.252;2023-09-08T04:07:58;101690.97;;;17.79;100.00
16120;BME280;12670;53.502;10.252;2023-09-08T04:11:00;101696.06;;;17.68;100.00
16120;BME280;12670;53.502;10.252;2023-09-08T04:14:05;101698.88;;;17.82;100.00
16120;BME280;12670;53.502;10.252;2023-09-08T04:17:07;101699.38;;;17.89;100.00
16120;BME280;12670;53.502;10.252;2023-09-08T04:20:11;101702.84;;;17.75;100.00
16120;BME280;12670;53.502;10.252;2023-09-08T04:23:16;101702.47;;;17.66;100.00
16120;BME280;12670;53.502;10.252;2023-09-08T04:26:18;101701.00;;;17.60;100.00
16120;BME280;12670;53.502;10.252;2023-09-08T04:29:22;101697.16;;;17.64;100.00
16120;BME280;12670;53.502;10.252;2023-09-08T04:32:25;101696.13;;;17.51;100.00
16120;BME280;12670;53.502;10.252;2023-09-08T04:35:28;101699.59;;;17.53;100.00
16120;BME280;12670;53.502;10.252;2023-09-08T04:38:30;101688.69;;;17.56;100.00
16120;BME280;12670;53.502;10.252;2023-09-08T04:41:33;101697.25;;;17.63;100.00
16120;BME280;12670;53.502;10.252;2023-09-08T04:44:37;101697.50;;;17.58;100.00
16120;BME280;12670;53.502;10.252;2023-09-08T04:47:40;101694.69;;;17.61;100.00
16120;BME280;12670;53.502;10.252;2023-09-08T04:50:42;101682.88;;;17.64;100.00
16120;BME280;12670;53.502;10.252;2023-09-08T04:53:45;101679.25;;;17.49;100.00
16120;BME280;12670;53.502;10.252;2023-09-08T04:56:48;101686.34;;;17.50;100.00
16120;BME280;12670;53.502;10.252;2023-09-08T04:59:52;101676.84;;;17.60;100.00
16120;BME280;12670;53.502;10.252;2023-09-08T05:02:55;101682.22;;;17.60;100.00
16120;BME280;12670;53.502;10.252;2023-09-08T05:05:58;101674.09;;;17.77;100.00
16120;BME280;12670;53.502;10.252;2023-09-08T05:09:03;101681.00;;;17.81;100.00
16120;BME280;12670;53.502;10.252;2023-09-08T05:12:06;101676.84;;;17.92;100.00
16120;BME280;12670;53.502;10.252;2023-09-08T05:15:10;101683.09;;;17.76;100.00
16120;BME280;12670;53.502;10.252;2023-09-08T05:18:16;101677.31;;;17.84;100.00
16120;BME280;12670;53.502;10.252;2023-09-08T05:21:19;101679.38;;;17.95;100.00
16120;BME280;12670;53.502;10.252;2023-09-08T05:24:22;101673.13;;;17.94;100.00
16120;BME280;12670;53.502;10.252;2023-09-08T05:27:27;101671.09;;;18.14;100.00
16120;BME280;12670;53.502;10.252;2023-09-08T05:30:31;101669.19;;;18.16;100.00
16120;BME280;12670;53.502;10.252;2023-09-08T05:33:33;101669.19;;;18.16;100.00
16120;BME280;12670;53.502;10.252;2023-09-08T05:36:36;101659.31;;;18.16;100.00
16120;BME280;12670;53.502;10.252;2023-09-08T05:39:40;101661.50;;;18.39;100.00
16120;BME280;12670;53.502;10.252;2023-09-08T05:42:42;101654.59;;;18.35;100.00
16120;BME280;12670;53.502;10.252;2023-09-08T05:45:47;101659.28;;;18.46;100.00
16120;BME280;12670;53.502;10.252;2023-09-08T05:48:50;101654.06;;;18.59;100.00
16120;BME280;12670;53.502;10.252;2023-09-08T05:51:52;101662.31;;;18.56;100.00
16120;BME280;12670;53.502;10.252;2023-09-08T05:54:55;101655.38;;;18.52;100.00
16120;BME280;12670;53.502;10.252;2023-09-08T05:57:58;101651.69;;;18.69;100.00
16120;BME280;12670;53.502;10.252;2023-09-08T06:01:03;101656.78;;;18.73;100.00
16120;BME280;12670;53.502;10.252;2023-09-08T06:04:06;101663.50;;;18.80;100.00
16120;BME280;12670;53.502;10.252;2023-09-08T06:07:09;101658.53;;;18.88;100.00
16120;BME280;12670;53.502;10.252;2023-09-08T06:10:11;101670.38;;;19.00;100.00
16120;BME280;12670;53.502;10.252;2023-09-08T06:13:14;101666.59;;;19.03;100.00
16120;BME280;12670;53.502;10.252;2023-09-08T06:16:18;101665.63;;;19.04;100.00
16120;BME280;12670;53.502;10.252;2023-09-08T06:19:21;101667.16;;;19.22;100.00
16120;BME280;12670;53.502;10.252;2023-09-08T06:22:23;101667.28;;;19.06;100.00
16120;BME280;12670;53.502;10.252;2023-09-08T06:25:26;101667.28;;;19.21;100.00
16120;BME280;12670;53.502;10.252;2023-09-08T06:28:30;101667.16;;;19.36;100.00
16120;BME280;12670;53.502;10.252;2023-09-08T06:31:35;101671.88;;;19.33;100.00
16120;BME280;12670;53.502;10.252;2023-09-08T06:34:38;101671.75;;;19.49;100.00
16120;BME280;12670;53.502;10.252;2023-09-08T06:37:41;101666.94;;;19.54;100.00
16120;BME280;12670;53.502;10.252;2023-09-08T06:40:43;101664.91;;;19.57;100.00
16120;BME280;12670;53.502;10.252;2023-09-08T06:43:46;101664.66;;;19.62;100.00
16120;BME280;12670;53.502;10.252;2023-09-08T06:46:50;101669.44;;;19.71;100.00
16120;BME280;12670;53.502;10.252;2023-09-08T06:49:53;101668.13;;;19.91;100.00
16120;BME280;12670;53.502;10.252;2023-09-08T06:52:55;101679.50;;;20.09;100.00
16120;BME280;12670;53.502;10.252;2023-09-08T06:55:58;101677.66;;;20.09;100.00
16120;BME280;12670;53.502;10.252;2023-09-08T06:59:01;101676.28;;;20.16;100.00
16120;BME280;12670;53.502;10.252;2023-09-08T07:02:06;101665.97;;;20.23;100.00
16120;BME280;12670;53.502;10.252;2023-09-08T07:05:09;101674.06;;;20.23;100.00
16120;BME280;12670;53.502;10.252;2023-09-08T07:08:12;101674.81;;;20.25;100.00
16120;BME280;12670;53.502;10.252;2023-09-08T07:11:15;101678.81;;;20.32;100.00
16120;BME280;12670;53.502;10.252;2023-09-08T07:14:18;101682.97;;;20.50;100.00
16120;BME280;12670;53.502;10.252;2023-09-08T07:17:22;101689.91;;;20.67;100.00
16120;BME280;12670;53.502;10.252;2023-09-08T07:20:25;101679.34;;;20.77;100.00
16120;BME280;12670;53.502;10.252;2023-09-08T07:23:28;101675.25;;;20.97;100.00
16120;BME280;12670;53.502;10.252;2023-09-08T07:26:31;101681.16;;;21.15;100.00
16120;BME280;12670;53.502;10.252;2023-09-08T07:29:34;101674.06;;;21.14;100.00
16120;BME280;12670;53.502;10.252;2023-09-08T07:32:38;101683.97;;;21.26;100.00
16120;BME280;12670;53.502;10.252;2023-09-08T07:35:40;101684.66;;;21.29;100.00
16120;BME280;12670;53.502;10.252;2023-09-08T07:38:43;101681.38;;;21.37;100.00
16120;BME280;12670;53.502;10.252;2023-09-08T07:41:46;101688.34;;;21.65;100.00
16120;BME280;12670;53.502;10.252;2023-09-08T07:44:48;101682.63;;;21.70;100.00
16120;BME280;12670;53.502;10.252;2023-09-08T07:47:52;101677.72;;;21.75;100.00
16120;BME280;12670;53.502;10.252;2023-09-08T07:50:55;101673.59;;;21.82;100.00
16120;BME280;12670;53.502;10.252;2023-09-08T07:54:00;101672.56;;;21.96;100.00
16120;BME280;12670;53.502;10.252;2023-09-08T07:57:04;101670.78;;;22.07;100.00
16120;BME280;12670;53.502;10.252;2023-09-08T08:00:08;101666.00;;;22.35;100.00
16120;BME280;12670;53.502;10.252;2023-09-08T08:03:14;101663.69;;;22.42;98.80
16120;BME280;12670;53.502;10.252;2023-09-08T08:06:17;101657.97;;;22.57;100.00
16120;BME280;12670;53.502;10.252;2023-09-08T08:09:19;101655.03;;;22.72;98.30
16120;BME280;12670;53.502;10.252;2023-09-08T08:12:22;101656.56;;;22.87;94.49
16120;BME280;12670;53.502;10.252;2023-09-08T08:15:34;101656.81;;;22.95;92.67
16120;BME280;12670;53.502;10.252;2023-09-08T08:18:39;101656.47;;;23.11;93.92
16120;BME280;12670;53.502;10.252;2023-09-08T08:21:42;101654.59;;;23.34;89.09
16120;BME280;12670;53.502;10.252;2023-09-08T08:24:45;101658.03;;;23.70;85.58
16120;BME280;12670;53.502;10.252;2023-09-08T08:27:48;101654.16;;;23.83;91.72
16120;BME280;12670;53.502;10.252;2023-09-08T08:30:51;101633.78;;;24.00;92.43
16120;BME280;12670;53.502;10.252;2023-09-08T08:33:55;101647.44;;;24.31;88.17
16120;BME280;12670;53.502;10.252;2023-09-08T08:36:58;101640.00;;;24.44;85.33
16120;BME280;12670;53.502;10.252;2023-09-08T08:40:01;101646.28;;;24.44;85.51
16120;BME280;12670;53.502;10.252;2023-09-08T08:43:05;101640.78;;;24.56;85.87
16120;BME280;12670;53.502;10.252;2023-09-08T08:46:08;101653.53;;;24.86;75.00
16120;BME280;12670;53.502;10.252;2023-09-08T08:49:14;101651.88;;;24.73;83.85
16120;BME280;12670;53.502;10.252;2023-09-08T08:52:18;101662.97;;;24.91;79.61
16120;BME280;12670;53.502;10.252;2023-09-08T08:55:21;101663.38;;;25.08;73.12
16120;BME280;12670;53.502;10.252;2023-09-08T08:58:25;101653.19;;;25.31;77.58
16120;BME280;12670;53.502;10.252;2023-09-08T09:01:28;101652.06;;;25.33;72.72
16120;BME280;12670;53.502;10.252;2023-09-08T09:04:33;101652.16;;;25.62;80.51
16120;BME280;12670;53.502;10.252;2023-09-08T09:07:36;101647.13;;;25.58;67.21
16120;BME280;12670;53.502;10.252;2023-09-08T09:10:39;101652.19;;;25.91;72.63
16120;BME280;12670;53.502;10.252;2023-09-08T09:13:42;101651.66;;;25.97;67.25
16120;BME280;12670;53.502;10.252;2023-09-08T09:16:44;101656.66;;;26.02;67.51
16120;BME280;12670;53.502;10.252;2023-09-08T09:19:50;101642.78;;;26.24;69.00
16120;BME280;12670;53.502;10.252;2023-09-08T09:22:53;101643.03;;;26.60;65.57
16120;BME280;12670;53.502;10.252;2023-09-08T09:25:56;101647.03;;;26.66;65.82
16120;BME280;12670;53.502;10.252;2023-09-08T09:28:59;101642.41;;;26.86;62.77
16120;BME280;12670;53.502;10.252;2023-09-08T09:32:03;101644.13;;;26.87;65.45
16120;BME280;12670;53.502;10.252;2023-09-08T09:35:08;101640.78;;;27.40;60.54
16120;BME280;12670;53.502;10.252;2023-09-08T09:38:11;101638.09;;;27.30;63.91
16120;BME280;12670;53.502;10.252;2023-09-08T09:41:14;101640.53;;;27.78;69.06
16120;BME280;12670;53.502;10.252;2023-09-08T09:44:17;101632.28;;;27.88;63.57
16120;BME280;12670;53.502;10.252;2023-09-08T09:47:22;101636.72;;;27.89;65.05
16120;BME280;12670;53.502;10.252;2023-09-08T09:50:29;101642.56;;;28.12;66.55
16120;BME280;12670;53.502;10.252;2023-09-08T09:53:34;101635.34;;;28.21;60.04
16120;BME280;12670;53.502;10.252;2023-09-08T09:56:37;101630.47;;;28.50;56.45
16120;BME280;12670;53.502;10.252;2023-09-08T09:59:41;101624.03;;;28.59;60.11
16120;BME280;12670;53.502;10.252;2023-09-08T10:02:44;101631.75;;;29.16;58.98
16120;BME280;12670;53.502;10.252;2023-09-08T10:05:48;101626.25;;;29.50;55.80
16120;BME280;12670;53.502;10.252;2023-09-08T10:08:51;101615.56;;;29.73;52.61
16120;BME280;12670;53.502;10.252;2023-09-08T10:11:59;101613.53;;;29.99;51.91
16120;BME280;12670;53.502;10.252;2023-09-08T10:15:07;101615.28;;;30.33;55.85
16120;BME280;12670;53.502;10.252;2023-09-08T10:18:12;101613.91;;;30.21;49.64
16120;BME280;12670;53.502;10.252;2023-09-08T10:21:21;101608.41;;;30.45;50.14
16120;BME280;12670;53.502;10.252;2023-09-08T10:24:27;101608.06;;;30.48;48.61
16120;BME280;12670;53.502;10.252;2023-09-08T10:27:30;101614.91;;;30.36;50.18
16120;BME280;12670;53.502;10.252;2023-09-08T10:30:34;101619.00;;;30.48;47.32
16120;BME280;12670;53.502;10.252;2023-09-08T10:33:37;101604.59;;;30.87;50.49
16120;BME280;12670;53.502;10.252;2023-09-08T10:36:42;101605.09;;;31.38;49.28
16120;BME280;12670;53.502;10.252;2023-09-08T10:39:44;101590.75;;;31.82;48.78
16120;BME280;12670;53.502;10.252;2023-09-08T10:42:47;101591.97;;;32.25;47.32
16120;BME280;12670;53.502;10.252;2023-09-08T10:45:50;101600.34;;;32.47;45.15
16120;BME280;12670;53.502;10.252;2023-09-08T10:48:53;101603.41;;;32.81;44.68
16120;BME280;12670;53.502;10.252;2023-09-08T10:52:07;101593.28;;;33.11;44.69
16120;BME280;12670;53.502;10.252;2023-09-08T10:55:11;101598.19;;;33.31;43.71
16120;BME280;12670;53.502;10.252;2023-09-08T10:58:18;101591.31;;;33.56;42.38
16120;BME280;12670;53.502;10.252;2023-09-08T11:01:22;101584.84;;;33.85;42.60
16120;BME280;12670;53.502;10.252;2023-09-08T11:04:29;101588.28;;;34.09;41.67
16120;BME280;12670;53.502;10.252;2023-09-08T11:07:35;101580.16;;;34.29;38.15
16120;BME280;12670;53.502;10.252;2023-09-08T11:10:38;101579.78;;;34.94;40.83
16120;BME280;12670;53.502;10.252;2023-09-08T11:13:42;101587.47;;;34.99;39.19
16120;BME280;12670;53.502;10.252;2023-09-08T11:16:47;101578.09;;;34.93;38.00
16120;BME280;12670;53.502;10.252;2023-09-08T11:19:50;101585.50;;;35.41;37.41
16120;BME280;12670;53.502;10.252;2023-09-08T11:22:54;101577.16;;;35.21;35.34
16120;BME280;12670;53.502;10.252;2023-09-08T11:25:57;101576.41;;;35.47;37.04
16120;BME280;12670;53.502;10.252;2023-09-08T11:28:59;101568.41;;;35.72;36.06
16120;BME280;12670;53.502;10.252;2023-09-08T11:32:03;101559.50;;;35.90;34.02
16120;BME280;12670;53.502;10.252;2023-09-08T11:35:07;101561.38;;;35.69;36.25
16120;BME280;12670;53.502;10.252;2023-09-08T11:38:12;101560.38;;;35.90;34.19
16120;BME280;12670;53.502;10.252;2023-09-08T11:41:14;101559.34;;;36.24;34.21
16120;BME280;12670;53.502;10.252;2023-09-08T11:44:17;101552.09;;;36.30;35.76
16120;BME280;12670;53.502;10.252;2023-09-08T11:47:21;101555.66;;;36.77;33.67
16120;BME280;12670;53.502;10.252;2023-09-08T11:50:24;101555.47;;;36.58;34.50
16120;BME280;12670;53.502;10.252;2023-09-08T11:53:28;101548.19;;;36.77;36.31
16120;BME280;12670;53.502;10.252;2023-09-08T11:56:33;101554.75;;;36.76;35.65
16120;BME280;12670;53.502;10.252;2023-09-08T11:59:36;101548.88;;;36.60;33.80
16120;BME280;12670;53.502;10.252;2023-09-08T12:02:39;101545.31;;;36.19;34.63
16120;BME280;12670;53.502;10.252;2023-09-08T12:05:44;101543.63;;;36.18;33.35
16120;BME280;12670;53.502;10.252;2023-09-08T12:08:48;101544.78;;;36.75;35.38
16120;BME280;12670;53.502;10.252;2023-09-08T12:11:51;101549.09;;;36.58;33.35
16120;BME280;12670;53.502;10.252;2023-09-08T12:14:53;101547.44;;;36.44;35.00
16120;BME280;12670;53.502;10.252;2023-09-08T12:17:56;101542.69;;;36.64;34.92
16120;BME280;12670;53.502;10.252;2023-09-08T12:21:03;101544.34;;;36.78;33.24
16120;BME280;12670;53.502;10.252;2023-09-08T12:24:08;101539.66;;;36.86;34.43
16120;BME280;12670;53.502;10.252;2023-09-08T12:27:15;101538.00;;;36.71;34.89
16120;BME280;12670;53.502;10.252;2023-09-08T12:30:19;101536.22;;;36.97;32.26
16120;BME280;12670;53.502;10.252;2023-09-08T12:33:22;101524.06;;;37.04;31.01
16120;BME280;12670;53.502;10.252;2023-09-08T12:36:25;101525.56;;;37.07;31.15
16120;BME280;12670;53.502;10.252;2023-09-08T12:39:29;101523.47;;;36.96;32.32
16120;BME280;12670;53.502;10.252;2023-09-08T12:42:32;101514.50;;;37.07;32.88
16120;BME280;12670;53.502;10.252;2023-09-08T12:45:43;101507.53;;;37.36;32.42
16120;BME280;12670;53.502;10.252;2023-09-08T12:48:48;101505.09;;;37.46;30.60
16120;BME280;12670;53.502;10.252;2023-09-08T12:51:50;101504.22;;;37.84;34.14
16120;BME280;12670;53.502;10.252;2023-09-08T12:54:54;101495.91;;;37.84;29.10
16120;BME280;12670;53.502;10.252;2023-09-08T12:57:57;101502.97;;;37.48;29.25
16120;BME280;12670;53.502;10.252;2023-09-08T13:00:59;101507.06;;;37.71;30.53
16120;BME280;12670;53.502;10.252;2023-09-08T13:04:03;101496.56;;;37.79;30.54
16120;BME280;12670;53.502;10.252;2023-09-08T13:07:05;101491.09;;;37.98;28.60
16120;BME280;12670;53.502;10.252;2023-09-08T13:10:10;101501.75;;;37.69;28.78
16120;BME280;12670;53.502;10.252;2023-09-08T13:13:13;101487.41;;;38.04;29.17
16120;BME280;12670;53.502;10.252;2023-09-08T13:16:15;101488.63;;;37.90;30.13
16120;BME280;12670;53.502;10.252;2023-09-08T13:19:18;101482.78;;;37.98;29.44
16120;BME280;12670;53.502;10.252;2023-09-08T13:22:21;101489.44;;;37.65;28.69
16120;BME280;12670;53.502;10.252;2023-09-08T13:25:25;101482.41;;;37.62;29.42
16120;BME280;12670;53.502;10.252;2023-09-08T13:28:28;101478.25;;;37.78;29.48
16120;BME280;12670;53.502;10.252;2023-09-08T13:31:31;101482.28;;;37.51;27.93
16120;BME280;12670;53.502;10.252;2023-09-08T13:34:33;101478.25;;;37.78;31.22
16120;BME280;12670;53.502;10.252;2023-09-08T13:37:36;101486.44;;;37.67;29.04
16120;BME280;12670;53.502;10.252;2023-09-08T13:40:41;101481.28;;;37.70;29.66
16120;BME280;12670;53.502;10.252;2023-09-08T13:43:44;101471.63;;;37.54;30.78
16120;BME280;12670;53.502;10.252;2023-09-08T13:46:48;101479.59;;;37.06;29.29
16120;BME280;12670;53.502;10.252;2023-09-08T13:49:51;101478.38;;;36.95;27.96
16120;BME280;12670;53.502;10.252;2023-09-08T13:52:58;101467.16;;;36.70;30.01
16120;BME280;12670;53.502;10.252;2023-09-08T13:56:03;101466.25;;;36.18;30.72
16120;BME280;12670;53.502;10.252;2023-09-08T13:59:09;101465.41;;;36.04;31.67
16120;BME280;12670;53.502;10.252;2023-09-08T14:02:14;101448.59;;;35.33;30.47
16120;BME280;12670;53.502;10.252;2023-09-08T14:05:36;101460.59;;;34.99;32.63
16120;BME280;12670;53.502;10.252;2023-09-08T14:08:46;101460.06;;;34.69;33.52
16120;BME280;12670;53.502;10.252;2023-09-08T14:12:11;101454.34;;;34.36;34.00
16120;BME280;12670;53.502;10.252;2023-09-08T14:15:16;101453.72;;;33.78;33.25
16120;BME280;12670;53.502;10.252;2023-09-08T14:18:19;101441.59;;;33.44;33.93
16120;BME280;12670;53.502;10.252;2023-09-08T14:21:22;101451.22;;;32.97;35.32
16120;BME280;12670;53.502;10.252;2023-09-08T14:24:24;101436.94;;;32.72;37.25
16120;BME280;12670;53.502;10.252;2023-09-08T14:27:29;101446.72;;;32.16;35.27
16120;BME280;12670;53.502;10.252;2023-09-08T14:30:31;101439.22;;;32.09;37.26
16120;BME280;12670;53.502;10.252;2023-09-08T14:33:34;101429.97;;;31.96;37.08
16120;BME280;12670;53.502;10.252;2023-09-08T14:36:37;101427.06;;;31.89;36.91
16120;BME280;12670;53.502;10.252;2023-09-08T14:39:40;101426.97;;;31.82;39.77
16120;BME280;12670;53.502;10.252;2023-09-08T14:42:44;101427.72;;;31.53;37.36
16120;BME280;12670;53.502;10.252;2023-09-08T14:45:46;101421.41;;;31.30;38.92
16120;BME280;12670;53.502;10.252;2023-09-08T14:48:49;101420.41;;;31.23;41.67
16120;BME280;12670;53.502;10.252;2023-09-08T14:51:52;101418.78;;;31.14;38.89
16120;BME280;12670;53.502;10.252;2023-09-08T14:54:54;101415.31;;;31.20;40.06
16120;BME280;12670;53.502;10.252;2023-09-08T14:57:58;101413.03;;;31.00;39.42
16120;BME280;12670;53.502;10.252;2023-09-08T15:01:01;101408.59;;;30.99;41.06
16120;BME280;12670;53.502;10.252;2023-09-08T15:04:05;101412.13;;;30.85;39.36
16120;BME280;12670;53.502;10.252;2023-09-08T15:07:08;101412.84;;;30.79;41.42
16120;BME280;12670;53.502;10.252;2023-09-08T15:10:11;101418.44;;;30.46;40.22
16120;BME280;12670;53.502;10.252;2023-09-08T15:13:15;101408.44;;;30.70;41.90
16120;BME280;12670;53.502;10.252;2023-09-08T15:16:17;101413.63;;;30.48;43.06
16120;BME280;12670;53.502;10.252;2023-09-08T15:19:20;101409.19;;;30.56;44.56
16120;BME280;12670;53.502;10.252;2023-09-08T15:22:23;101417.81;;;30.36;46.09
16120;BME280;12670;53.502;10.252;2023-09-08T15:25:25;101401.47;;;30.04;41.18
16120;BME280;12670;53.502;10.252;2023-09-08T15:28:30;101407.97;;;30.11;43.11
16120;BME280;12670;53.502;10.252;2023-09-08T15:31:33;101404.59;;;29.92;45.56
16120;BME280;12670;53.502;10.252;2023-09-08T15:34:35;101413.81;;;29.83;42.40
16120;BME280;12670;53.502;10.252;2023-09-08T15:37:38;101398.78;;;29.71;41.50
16120;BME280;12670;53.502;10.252;2023-09-08T15:44:20;101408.50;;;29.90;43.93